Time;durP1;ratioP1;P1;durP2;ratioP2;P2;SDS_P1;SDS_P2;PMS_P1;PMS_P2;Temp;Humidity;BMP_temperature;BMP_pressure;BME280_temperature;BME280_humidity;BME280_pressure;Samples;Min_cycle;Max_cycle;Signal;HPM_P1;HPM_P2
2021/05/29 00:01:53;;;;;;;12.20;10.97;;;;;;;8.27;92.29;101318.16;5086222;28;20204;-76
2021/05/29 00:04:19;;;;;;;10.77;9.73;;;;;;;8.30;92.57;101311.22;5085718;28;20211;-77
2021/05/29 00:06:45;;;;;;;11.20;10.20;;;;;;;8.20;92.03;101319.84;5086704;28;20200;-77
2021/05/29 00:09:11;;;;;;;12.07;11.00;;;;;;;8.20;92.34;101319.84;5086977;28;20296;-77
2021/05/29 00:11:37;;;;;;;10.57;9.60;;;;;;;8.20;91.72;101322.44;5086240;28;20258;-77
2021/05/29 00:14:04;;;;;;;11.60;10.60;;;;;;;8.19;92.19;101322.44;5086294;28;20778;-77
2021/05/29 00:16:30;;;;;;;11.00;10.03;;;;;;;8.18;92.41;101320.69;5085745;28;20218;-76
2021/05/29 00:18:56;;;;;;;12.47;11.20;;;;;;;8.11;92.44;101320.66;5086282;28;20219;-77
2021/05/29 00:21:22;;;;;;;11.17;10.23;;;;;;;8.25;92.45;101312.06;5086188;28;20675;-77
2021/05/29 00:23:48;;;;;;;12.50;11.23;;;;;;;8.14;92.14;101312.88;5086029;28;20204;-76
2021/05/29 00:26:14;;;;;;;12.47;11.47;;;;;;;8.19;92.08;101312.91;5086917;28;20714;-78
2021/05/29 00:28:40;;;;;;;12.67;11.33;;;;;;;8.16;92.76;101305.09;5086017;28;20329;-76
2021/05/29 00:31:06;;;;;;;15.97;12.03;;;;;;;8.15;92.81;101300.75;5085567;28;20231;-77
2021/05/29 00:33:32;;;;;;;14.13;12.27;;;;;;;8.14;92.83;101304.19;5086449;28;20231;-76
2021/05/29 00:35:58;;;;;;;13.77;12.27;;;;;;;8.04;92.79;101305.88;5085899;28;20230;-76
2021/05/29 00:38:24;;;;;;;15.03;13.53;;;;;;;8.07;92.65;101305.06;5086670;28;20195;-78
2021/05/29 00:40:50;;;;;;;14.57;13.17;;;;;;;8.00;92.83;101304.13;5085734;28;20245;-78
2021/05/29 00:43:16;;;;;;;17.23;13.13;;;;;;;8.03;92.51;101309.38;5085804;28;20203;-77
2021/05/29 00:45:42;;;;;;;13.87;12.23;;;;;;;8.02;92.31;101309.34;5085948;28;20760;-77
2021/05/29 00:48:08;;;;;;;16.63;13.47;;;;;;;8.00;92.57;101311.06;5085395;28;20255;-76
2021/05/29 00:50:47;;;;;;;15.17;13.67;;;;;;;8.03;93.30;101309.38;5085630;28;20247;-78
2021/05/29 00:53:15;;;;;;;15.97;13.70;;;;;;;8.01;92.57;101310.19;5085567;28;20232;-78
2021/05/29 00:55:41;;;;;;;13.83;12.63;;;;;;;8.09;92.56;101312.00;5086299;28;20208;-78
2021/05/29 00:58:07;;;;;;;14.17;12.80;;;;;;;8.19;92.23;101312.06;5085790;28;20204;-77
2021/05/29 01:00:33;;;;;;;13.57;12.37;;;;;;;8.14;92.32;101317.22;5085000;28;20212;-77
2021/05/29 01:02:59;;;;;;;14.73;13.23;;;;;;;8.26;92.64;101312.06;5085602;28;20219;-77
2021/05/29 01:05:25;;;;;;;15.20;13.80;;;;;;;8.13;91.80;101320.69;5085016;28;20239;-77
2021/05/29 01:07:52;;;;;;;15.77;13.13;;;;;;;8.12;92.52;101326.72;5085545;28;20259;-76
2021/05/29 01:10:21;;;;;;;15.43;14.03;;;;;;;8.09;92.47;101322.41;5083672;28;20227;-76
2021/05/29 01:12:47;;;;;;;16.07;14.57;;;;;;;8.15;92.24;101322.41;5084497;28;20490;-77
2021/05/29 01:15:16;;;;;;;14.87;13.57;;;;;;;8.18;92.30;101326.75;5084678;28;20214;-77
2021/05/29 01:17:42;;;;;;;16.80;15.03;;;;;;;8.15;92.67;101322.41;5084641;28;20200;-77
2021/05/29 01:20:09;;;;;;;15.90;14.33;;;;;;;8.12;92.84;101322.41;5084414;28;20235;-77
2021/05/29 01:22:39;;;;;;;16.30;14.60;;;;;;;8.10;93.47;101320.66;5084635;28;20239;-76
2021/05/29 01:25:09;;;;;;;16.07;14.37;;;;;;;8.08;92.65;101320.63;5084154;28;20209;-77
2021/05/29 01:27:34;;;;;;;17.73;15.27;;;;;;;8.07;93.18;101318.91;5084605;28;20257;-77
2021/05/29 01:30:00;;;;;;;16.97;14.57;;;;;;;8.10;93.37;101325.84;5083881;28;20232;-77
2021/05/29 01:32:32;;;;;;;18.10;16.30;;;;;;;8.17;93.45;101330.25;5083957;28;20232;-77
2021/05/29 01:35:00;;;;;;;19.10;16.80;;;;;;;8.20;93.70;101329.38;5084137;28;20207;-77
2021/05/29 01:37:26;;;;;;;19.47;17.53;;;;;;;8.27;92.87;101326.81;5084385;28;20246;-75
2021/05/29 01:39:53;;;;;;;15.47;14.03;;;;;;;8.30;92.96;101328.56;5084383;28;20316;-76
2021/05/29 01:42:20;;;;;;;16.13;14.53;;;;;;;8.31;92.88;101336.38;5084354;28;20222;-76
2021/05/29 01:44:47;;;;;;;18.53;16.23;;;;;;;8.33;93.00;101339.00;5083763;28;20246;-77
2021/05/29 01:47:13;;;;;;;18.53;16.73;;;;;;;8.40;92.86;101327.72;5083546;28;20632;-76
2021/05/29 01:49:39;;;;;;;18.60;16.80;;;;;;;8.47;93.02;101332.13;5083852;28;20232;-77
2021/05/29 01:52:05;;;;;;;24.40;16.30;;;;;;;8.49;92.42;101327.81;5083761;28;20224;-76
2021/05/29 01:54:31;;;;;;;18.60;16.13;;;;;;;8.63;92.80;101327.88;5083492;28;20250;-75
2021/05/29 01:56:58;;;;;;;18.97;16.80;;;;;;;8.63;92.10;101327.00;5085256;28;20207;-77
2021/05/29 01:59:24;;;;;;;20.53;16.80;;;;;;;8.66;91.75;101321.78;5084367;28;20253;-77
2021/05/29 02:01:50;;;;;;;18.73;16.40;;;;;;;8.75;91.69;101322.69;5084324;28;20209;-76
2021/05/29 02:04:16;;;;;;;27.80;16.70;;;;;;;8.78;91.70;101321.84;5084007;28;20204;-76
2021/05/29 02:06:42;;;;;;;18.73;16.90;;;;;;;8.77;92.01;101320.09;5084061;28;20211;-77
2021/05/29 02:09:08;;;;;;;19.63;16.30;;;;;;;8.78;91.36;101318.34;5084995;28;20913;-77
2021/05/29 02:11:34;;;;;;;17.70;16.00;;;;;;;8.89;91.00;101327.06;5084247;28;21038;-77
2021/05/29 02:14:01;;;;;;;17.53;15.67;;;;;;;8.94;90.98;101328.81;5084104;28;20223;-76
2021/05/29 02:16:27;;;;;;;18.27;16.03;;;;;;;8.84;90.57;101326.19;5083970;28;20331;-77
2021/05/29 02:18:53;;;;;;;19.37;17.00;;;;;;;8.79;91.06;101323.56;5083650;28;20294;-76
2021/05/29 02:21:19;;;;;;;19.33;17.33;;;;;;;8.66;91.42;101333.09;5082420;28;20227;-76
2021/05/29 02:23:47;;;;;;;21.20;16.47;;;;;;;8.65;91.72;101335.69;5083690;28;20734;-77
2021/05/29 02:26:15;;;;;;;18.97;16.87;;;;;;;8.59;92.41;101328.72;5084492;28;20204;-77
2021/05/29 02:28:42;;;;;;;22.93;17.83;;;;;;;8.62;92.56;101335.66;5083849;28;20235;-76
2021/05/29 02:31:11;;;;;;;19.50;17.50;;;;;;;8.66;92.29;101327.00;5083201;28;20235;-76
2021/05/29 02:33:38;;;;;;;18.60;16.80;;;;;;;8.63;92.24;101327.88;5083542;28;20208;-76
2021/05/29 02:36:04;;;;;;;18.87;16.77;;;;;;;8.61;92.96;101329.59;5083848;28;20200;-77
2021/05/29 02:38:33;;;;;;;22.57;17.17;;;;;;;8.75;92.28;101327.91;5083959;28;20224;-77
2021/05/29 02:40:59;;;;;;;18.73;15.60;;;;;;;8.80;91.96;101327.94;5083139;28;20227;-76
2021/05/29 02:43:25;;;;;;;17.67;15.83;;;;;;;8.93;92.13;101332.28;5083475;28;20731;-77
2021/05/29 02:45:51;;;;;;;16.83;15.27;;;;;;;8.93;91.33;101334.03;5083291;28;20220;-77
2021/05/29 02:48:18;;;;;;;18.97;16.10;;;;;;;8.97;91.59;101333.16;5083396;28;20235;-76
2021/05/29 02:50:44;;;;;;;17.53;14.80;;;;;;;9.00;91.19;101335.78;5082996;28;20216;-77
2021/05/29 02:53:13;;;;;;;18.90;15.67;;;;;;;8.99;91.66;101328.81;5083122;28;20233;-77
2021/05/29 02:55:39;;;;;;;18.47;15.87;;;;;;;9.00;90.98;101341.00;5083790;28;20268;-77
2021/05/29 02:58:06;;;;;;;18.43;15.50;;;;;;;8.96;91.30;101341.84;5083161;28;20204;-76
2021/05/29 03:00:34;;;;;;;20.20;14.80;;;;;;;8.90;90.95;101339.22;5082921;28;20250;-77
2021/05/29 03:03:02;;;;;;;18.47;15.80;;;;;;;8.95;91.31;101342.72;5083396;28;20244;-76
2021/05/29 03:05:30;;;;;;;19.97;16.47;;;;;;;8.98;90.41;101347.94;5082924;28;20204;-77
2021/05/29 03:07:55;;;;;;;18.20;16.03;;;;;;;8.98;90.84;101341.84;5083551;28;20292;-77
2021/05/29 03:10:23;;;;;;;17.40;15.57;;;;;;;8.98;90.21;101342.72;5083035;28;20215;-77
2021/05/29 03:12:50;;;;;;;16.53;14.77;;;;;;;8.96;89.98;101339.25;5082932;28;20227;-77
2021/05/29 03:15:19;;;;;;;17.03;15.33;;;;;;;8.97;90.09;101348.78;5083123;28;20635;-76
2021/05/29 03:17:46;;;;;;;18.43;16.30;;;;;;;9.03;89.93;101354.00;5082982;28;20690;-76
2021/05/29 03:20:14;;;;;;;18.67;16.57;;;;;;;9.03;90.21;101350.53;5082811;28;20581;-77
2021/05/29 03:22:41;;;;;;;22.30;16.03;;;;;;;8.99;90.63;101346.19;5082520;28;20203;-77
2021/05/29 03:25:08;;;;;;;18.13;16.33;;;;;;;8.92;90.62;101350.53;5082945;28;20208;-77
2021/05/29 03:27:35;;;;;;;18.80;15.93;;;;;;;8.94;90.68;101359.22;5082788;28;20204;-76
2021/05/29 03:30:01;;;;;;;19.07;17.20;;;;;;;8.99;90.73;101362.69;5082658;28;20352;-77
2021/05/29 03:32:27;;;;;;;19.07;15.73;;;;;;;9.04;90.49;101358.34;5084484;28;20223;-76
2021/05/29 03:34:53;;;;;;;18.57;16.70;;;;;;;9.06;90.24;101363.59;5086683;28;20381;-77
2021/05/29 03:37:19;;;;;;;18.40;16.47;;;;;;;9.02;90.59;101351.38;5087516;28;20211;-77
2021/05/29 03:39:45;;;;;;;18.63;15.17;;;;;;;9.00;90.90;101355.72;5087064;28;20227;-76
2021/05/29 03:42:12;;;;;;;18.53;15.63;;;;;;;9.02;90.60;101360.09;5086769;28;20670;-77
2021/05/29 03:44:37;;;;;;;16.67;15.13;;;;;;;8.93;89.39;101354.84;5087293;28;20249;-76
2021/05/29 03:47:04;;;;;;;16.10;14.47;;;;;;;8.91;88.65;101359.19;5086597;28;20319;-76
2021/05/29 03:49:30;;;;;;;17.87;15.43;;;;;;;8.81;88.96;101354.81;5086486;28;20848;-77
2021/05/29 03:51:55;;;;;;;18.40;15.73;;;;;;;8.84;89.01;101363.53;5086409;28;20713;-77
2021/05/29 03:54:22;;;;;;;17.70;15.90;;;;;;;8.91;89.02;101361.78;5086455;28;20554;-76
2021/05/29 03:56:49;;;;;;;17.73;16.10;;;;;;;8.91;89.54;101357.44;5087455;28;20273;-77
2021/05/29 03:59:16;;;;;;;17.00;15.30;;;;;;;9.04;89.89;101358.34;5086434;28;20666;-76
2021/05/29 04:01:42;;;;;;;16.47;14.70;;;;;;;9.11;88.95;101365.31;5086987;28;20569;-77
2021/05/29 04:04:09;;;;;;;15.43;14.03;;;;;;;9.18;88.40;101366.19;5086287;28;20200;-77
2021/05/29 04:06:36;;;;;;;16.57;14.77;;;;;;;9.14;88.87;101373.13;5086587;28;20215;-77
2021/05/29 04:09:04;;;;;;;14.80;13.53;;;;;;;9.17;88.56;101384.44;5086667;28;20336;-77
2021/05/29 04:11:30;;;;;;;16.03;14.53;;;;;;;9.13;88.88;101383.53;5086575;28;20204;-76
2021/05/29 04:13:57;;;;;;;16.03;14.37;;;;;;;9.19;88.73;101380.09;5086466;28;20260;-77
2021/05/29 04:16:23;;;;;;;16.23;14.40;;;;;;;9.23;88.73;101381.81;5086138;28;20229;-77
2021/05/29 04:18:49;;;;;;;14.27;13.07;;;;;;;9.14;87.51;101380.94;5085856;28;20204;-76
2021/05/29 04:21:15;;;;;;;16.67;13.53;;;;;;;9.20;87.55;101381.84;5086252;28;20723;-77
2021/05/29 04:23:42;;;;;;;15.50;13.07;;;;;;;9.26;87.81;101377.50;5085929;28;20204;-76
2021/05/29 04:26:08;;;;;;;16.03;14.57;;;;;;;9.39;87.62;101382.72;5086676;28;20265;-77
2021/05/29 04:28:36;;;;;;;15.17;13.30;;;;;;;9.43;87.61;101387.06;5086328;28;20212;-77
2021/05/29 04:31:04;;;;;;;14.00;12.27;;;;;;;9.48;87.46;101381.00;5085421;28;20246;-77
2021/05/29 04:33:30;;;;;;;13.67;12.37;;;;;;;9.49;86.52;101385.34;5085426;28;20265;-76
2021/05/29 04:35:57;;;;;;;13.13;11.47;;;;;;;9.59;85.47;101380.13;5086134;28;20269;-77
2021/05/29 04:38:23;;;;;;;12.87;11.60;;;;;;;9.62;85.58;101382.75;5086586;28;20200;-77
2021/05/29 04:40:49;;;;;;;12.17;10.83;;;;;;;9.65;85.04;101382.72;5085738;28;20224;-77
2021/05/29 04:43:15;;;;;;;13.00;11.77;;;;;;;9.57;84.31;101384.47;5085194;28;20236;-77
2021/05/29 04:45:41;;;;;;;12.40;11.30;;;;;;;9.46;84.79;101382.72;5085315;28;21345;-77
2021/05/29 04:48:09;;;;;;;13.47;12.00;;;;;;;9.46;83.76;101387.09;5085212;28;20215;-76
2021/05/29 04:51:11;;;;;;;13.50;12.20;;;;;;;9.44;83.42;101391.44;5085598;28;20317;-77
2021/05/29 04:53:22;;;;;;;14.50;12.93;;;;;;;9.27;83.53;101380.97;5084914;28;20229;-77
2021/05/29 04:55:48;;;;;;;12.30;11.30;;;;;;;9.02;83.70;101390.44;5085916;28;20232;-77
2021/05/29 04:58:14;;;;;;;12.63;11.43;;;;;;;9.04;83.48;101386.13;5085899;28;20204;-76
2021/05/29 05:00:40;;;;;;;13.47;12.27;;;;;;;9.00;83.18;101397.38;5085555;28;21236;-77
2021/05/29 05:03:06;;;;;;;13.60;12.30;;;;;;;8.95;83.64;101394.78;5085363;28;20256;-76
2021/05/29 05:05:32;;;;;;;15.90;13.07;;;;;;;8.98;83.59;101396.53;5085489;28;20203;-77
2021/05/29 05:07:58;;;;;;;11.93;10.73;;;;;;;8.81;83.13;101386.91;5086101;28;20670;-77
2021/05/29 05:10:24;;;;;;;12.17;11.03;;;;;;;8.79;83.45;101387.78;5085144;28;20238;-76
2021/05/29 05:12:50;;;;;;;11.30;10.30;;;;;;;8.71;83.43;101393.81;5085192;28;20228;-76
2021/05/29 05:15:16;;;;;;;10.77;9.77;;;;;;;8.72;83.86;101398.19;5085273;28;20204;-76
2021/05/29 05:17:43;;;;;;;10.60;9.53;;;;;;;8.74;84.59;101396.47;5084829;28;20251;-76
2021/05/29 05:20:10;;;;;;;11.53;10.43;;;;;;;8.76;84.25;101399.06;5084737;28;20255;-77
2021/05/29 05:22:37;;;;;;;11.77;10.63;;;;;;;8.77;83.63;101403.41;5084957;28;20274;-76
2021/05/29 05:25:04;;;;;;;15.10;11.20;;;;;;;8.70;84.33;101404.22;5085029;28;20254;-77
2021/05/29 05:27:30;;;;;;;11.57;10.57;;;;;;;8.64;83.62;101412.00;5085392;28;20241;-76
2021/05/29 05:29:56;;;;;;;11.20;10.20;;;;;;;8.81;82.84;101409.50;5084442;28;20218;-77
2021/05/29 05:32:22;;;;;;;10.57;9.47;;;;;;;8.86;82.85;101405.16;5085018;28;20227;-76
2021/05/29 05:34:48;;;;;;;11.97;11.00;;;;;;;8.78;83.12;101406.88;5084364;28;20208;-77
2021/05/29 05:37:14;;;;;;;12.10;10.90;;;;;;;8.81;83.47;101410.34;5085072;28;20212;-77
2021/05/29 05:39:41;;;;;;;12.73;11.40;;;;;;;8.87;83.79;101405.16;5084996;28;20239;-77
2021/05/29 05:42:08;;;;;;;14.67;11.20;;;;;;;8.93;84.03;101412.13;5085008;28;20287;-77
2021/05/29 05:44:34;;;;;;;11.40;10.30;;;;;;;8.93;82.44;101413.00;5084228;28;20234;-76
2021/05/29 05:47:00;;;;;;;11.83;10.77;;;;;;;8.90;82.31;101409.50;5084486;28;20269;-77
2021/05/29 05:49:27;;;;;;;12.83;11.63;;;;;;;9.05;82.66;101413.91;5084136;28;20220;-76
2021/05/29 05:51:53;;;;;;;12.40;11.20;;;;;;;8.97;81.81;101416.50;5084201;28;20235;-75
2021/05/29 05:54:19;;;;;;;13.33;12.00;;;;;;;9.03;82.42;101421.72;5084157;28;20561;-76
2021/05/29 05:56:45;;;;;;;13.67;10.43;;;;;;;9.05;82.43;101421.72;5084306;28;20265;-77
2021/05/29 05:59:11;;;;;;;11.67;10.57;;;;;;;9.08;81.61;101429.56;5084648;28;20231;-76
2021/05/29 06:01:38;;;;;;;10.63;9.53;;;;;;;9.20;82.40;101428.72;5085152;28;20199;-76
2021/05/29 06:04:04;;;;;;;10.87;9.83;;;;;;;9.12;82.00;101428.72;5083798;28;20200;-76
2021/05/29 06:06:30;;;;;;;10.60;9.57;;;;;;;9.13;82.24;101428.69;5084154;28;20245;-77
2021/05/29 06:08:56;;;;;;;11.23;10.13;;;;;;;9.05;82.19;101433.00;5084202;28;20261;-76
2021/05/29 06:11:22;;;;;;;9.83;9.03;;;;;;;8.97;81.52;101439.06;5083926;28;20212;-76
2021/05/29 06:19:18;;;;;;;11.27;10.20;;;;;;;9.18;82.36;101444.34;5083582;28;20767;-76
2021/05/29 06:21:47;;;;;;;10.20;9.30;;;;;;;9.18;81.46;101440.84;5084205;28;20196;-76
2021/05/29 06:24:15;;;;;;;10.90;10.03;;;;;;;9.23;82.24;101445.22;5083817;28;20899;-77
2021/05/29 06:26:41;;;;;;;11.10;10.20;;;;;;;9.31;82.47;101443.50;5084234;28;20227;-76
2021/05/29 06:29:08;;;;;;;11.20;10.20;;;;;;;9.40;82.83;101453.09;5083600;28;20204;-76
2021/05/29 06:31:33;;;;;;;12.53;11.47;;;;;;;9.39;81.09;101453.06;5083251;28;20203;-76
2021/05/29 06:33:59;;;;;;;12.33;11.23;;;;;;;9.30;81.45;101452.19;5083210;28;20220;-76
2021/05/29 06:36:25;;;;;;;12.40;11.57;;;;;;;9.37;81.23;101454.81;5083739;28;20226;-76
2021/05/29 06:38:51;;;;;;;11.83;10.83;;;;;;;9.37;80.68;101455.66;5084332;28;20270;-77
2021/05/29 06:41:17;;;;;;;12.10;11.10;;;;;;;9.34;80.64;101451.34;5083339;28;20223;-75
2021/05/29 06:43:43;;;;;;;12.50;11.50;;;;;;;9.39;80.47;101453.06;5083455;28;20659;-76
2021/05/29 06:46:10;;;;;;;13.07;12.00;;;;;;;9.29;80.89;101457.38;5083148;28;20245;-77
2021/05/29 06:48:36;;;;;;;12.60;11.40;;;;;;;9.31;81.45;101460.88;5083209;28;20239;-76
2021/05/29 06:51:02;;;;;;;13.17;12.07;;;;;;;9.32;82.30;101460.03;5083522;28;20223;-77
2021/05/29 06:53:31;;;;;;;12.57;11.37;;;;;;;9.41;81.55;101467.84;5082866;28;20270;-76
2021/05/29 06:58:50;;;;;;;12.43;11.33;;;;;;;9.75;80.39;101462.69;5025420;28;20195;-75
2021/05/29 07:01:18;;;;;;;11.90;10.80;;;;;;;9.85;79.58;101464.44;5082203;28;20219;-76
2021/05/29 07:03:45;;;;;;;12.07;11.03;;;;;;;9.92;79.17;101458.34;5082489;28;20486;-75
2021/05/29 07:06:11;;;;;;;11.90;10.80;;;;;;;9.98;79.14;101472.28;5082427;28;20281;-76
2021/05/29 07:08:37;;;;;;;13.17;11.97;;;;;;;10.05;78.46;101467.06;5082835;28;20229;-75
2021/05/29 07:11:03;;;;;;;12.80;11.70;;;;;;;10.07;78.64;101469.69;5083166;28;20226;-76
2021/05/29 07:13:29;;;;;;;12.27;11.17;;;;;;;10.17;78.92;101468.78;5083299;28;20259;-76
2021/05/29 07:15:55;;;;;;;11.87;10.87;;;;;;;10.30;78.51;101472.28;5082796;28;20223;-74
2021/05/29 07:18:24;;;;;;;12.13;11.13;;;;;;;10.36;78.43;101472.28;5082429;28;20633;-76
2021/05/29 07:20:50;;;;;;;12.80;11.37;;;;;;;10.23;77.42;101473.16;5082908;28;20226;-76
2021/05/29 07:23:16;;;;;;;11.50;10.50;;;;;;;10.34;77.47;101474.88;5082677;28;20261;-76
2021/05/29 07:25:42;;;;;;;12.10;11.10;;;;;;;10.41;77.61;101470.53;5083525;28;20615;-74
2021/05/29 07:28:08;;;;;;;12.40;11.20;;;;;;;10.51;78.05;101474.00;5083137;28;20215;-76
2021/05/29 07:30:34;;;;;;;12.83;11.73;;;;;;;10.41;78.06;101480.97;5083136;28;20635;-76
2021/05/29 07:33:00;;;;;;;13.57;12.47;;;;;;;10.26;77.99;101478.34;5082425;28;20265;-74
2021/05/29 07:35:28;;;;;;;13.13;12.03;;;;;;;10.32;78.47;101481.84;5082965;28;20258;-75
2021/05/29 07:37:54;;;;;;;13.07;11.87;;;;;;;10.42;77.84;101484.44;5083269;28;20230;-75
2021/05/29 07:40:20;;;;;;;13.27;12.03;;;;;;;10.19;77.69;101482.72;5082298;28;20235;-75
2021/05/29 07:42:46;;;;;;;14.27;12.97;;;;;;;10.07;77.97;101487.94;5083067;28;20203;-75
2021/05/29 07:45:13;;;;;;;12.43;11.47;;;;;;;10.25;78.20;101482.69;5082713;28;20208;-75
2021/05/29 07:47:40;;;;;;;12.63;11.63;;;;;;;10.24;76.59;101485.31;5082278;28;20235;-75
2021/05/29 07:50:08;;;;;;;13.17;11.90;;;;;;;10.38;77.39;101485.31;5082543;28;20253;-75
2021/05/29 07:52:35;;;;;;;12.97;11.87;;;;;;;10.46;76.85;101487.03;5114385;27;20236;-75
2021/05/29 07:55:01;;;;;;;13.90;12.70;;;;;;;10.65;77.06;101482.66;5082808;28;20200;-75
2021/05/29 07:57:27;;;;;;;13.33;12.00;;;;;;;10.75;75.95;101485.25;5082817;28;20211;-76
2021/05/29 07:59:53;;;;;;;13.23;12.13;;;;;;;10.68;75.21;101490.50;5082401;28;20370;-76
2021/05/29 08:02:19;;;;;;;13.23;12.03;;;;;;;10.65;74.46;101492.25;5082318;28;20525;-74
2021/05/29 08:04:45;;;;;;;14.53;13.07;;;;;;;10.32;74.77;101494.88;5081584;28;20278;-76
2021/05/29 08:07:11;;;;;;;15.17;13.00;;;;;;;10.50;76.49;101490.53;5082585;28;20212;-76
2021/05/29 08:09:38;;;;;;;13.77;12.67;;;;;;;10.58;76.25;101498.34;5082302;28;20256;-76
2021/05/29 08:12:05;;;;;;;13.93;12.83;;;;;;;10.63;76.18;101497.47;5082200;28;20208;-76
2021/05/29 08:14:31;;;;;;;13.27;12.27;;;;;;;10.83;76.02;101491.34;5081601;28;20207;-75
2021/05/29 08:16:57;;;;;;;14.17;12.93;;;;;;;11.00;74.98;101500.00;5081773;28;20677;-76
2021/05/29 08:19:22;;;;;;;12.83;11.83;;;;;;;11.10;74.58;101504.28;5084839;28;20224;-76
2021/05/29 08:21:49;;;;;;;14.10;12.90;;;;;;;11.01;73.88;101504.31;5085922;28;20649;-75
2021/05/29 08:24:16;;;;;;;13.00;11.90;;;;;;;11.13;74.66;101503.41;5086142;28;20737;-76
2021/05/29 08:26:44;;;;;;;13.47;12.37;;;;;;;11.19;74.57;101516.44;5085299;28;20230;-76
2021/05/29 08:29:11;;;;;;;13.47;12.10;;;;;;;11.20;74.13;101509.47;5085603;28;20722;-75
2021/05/29 08:31:37;;;;;;;12.70;11.50;;;;;;;10.99;74.78;101513.03;5084510;28;20204;-75
2021/05/29 08:34:04;;;;;;;13.27;12.07;;;;;;;10.92;75.14;101518.28;5085372;28;20730;-76
2021/05/29 08:36:30;;;;;;;13.57;11.97;;;;;;;10.91;75.87;101511.31;5085690;28;20530;-75
2021/05/29 08:38:56;;;;;;;13.07;11.70;;;;;;;10.80;76.21;101518.34;5085769;28;20663;-74
2021/05/29 08:41:23;;;;;;;12.70;11.50;;;;;;;10.82;75.62;101524.44;5085162;28;20227;-75
2021/05/29 08:43:50;;;;;;;14.13;12.93;;;;;;;10.67;75.69;101521.84;5085733;28;20207;-76
2021/05/29 08:46:17;;;;;;;13.63;11.83;;;;;;;10.84;76.12;101514.84;5085447;28;20645;-75
2021/05/29 08:48:42;;;;;;;12.10;11.00;;;;;;;10.88;76.06;101527.00;5085506;28;20221;-75
2021/05/29 08:51:15;;;;;;;14.10;12.87;;;;;;;10.84;76.75;101522.69;5084620;28;20220;-75
2021/05/29 08:53:42;;;;;;;14.20;13.00;;;;;;;10.81;76.87;101532.25;5084981;28;20227;-75
2021/05/29 08:56:08;;;;;;;15.13;13.80;;;;;;;10.57;76.58;101530.56;5085321;28;20257;-75
2021/05/29 08:58:34;;;;;;;15.87;14.23;;;;;;;10.56;77.21;101537.50;5084741;28;20208;-76
2021/05/29 09:01:02;;;;;;;15.87;14.37;;;;;;;10.35;78.56;101530.56;5084655;28;20223;-75
2021/05/29 09:03:39;;;;;;;15.83;14.17;;;;;;;10.23;79.32;101538.38;5084232;28;20382;-75
2021/05/29 09:06:06;;;;;;;14.27;12.87;;;;;;;10.08;78.87;101534.00;5084440;28;20204;-76
2021/05/29 09:08:32;;;;;;;15.20;13.63;;;;;;;9.96;79.95;101537.47;5085081;28;20235;-77
2021/05/29 09:10:59;;;;;;;15.53;14.13;;;;;;;9.96;80.13;101534.00;5084575;28;20232;-77
2021/05/29 09:13:26;;;;;;;14.50;13.20;;;;;;;10.20;80.58;101541.84;5083515;28;20227;-76
2021/05/29 09:15:54;;;;;;;14.00;12.80;;;;;;;10.27;79.25;101537.50;5083986;28;20204;-76
2021/05/29 09:18:36;;;;;;;14.23;12.73;;;;;;;10.36;79.21;101534.03;5084094;28;20674;-77
2021/05/29 09:21:26;;;;;;;13.53;12.37;;;;;;;10.03;79.85;101531.41;5084179;28;20601;-75
2021/05/29 09:23:54;;;;;;;14.70;13.17;;;;;;;10.07;80.95;101537.50;5084295;28;20204;-76
2021/05/29 09:26:22;;;;;;;13.57;12.40;;;;;;;10.04;79.86;101535.75;5084181;28;20204;-76
2021/05/29 09:28:49;;;;;;;14.00;12.70;;;;;;;9.99;80.47;101532.28;5083735;28;20307;-75
2021/05/29 09:31:16;;;;;;;12.70;11.50;;;;;;;10.19;80.65;101542.72;5084172;28;20764;-76
2021/05/29 09:33:45;;;;;;;14.47;12.90;;;;;;;10.19;80.50;101541.81;5083447;28;20311;-76
2021/05/29 09:36:13;;;;;;;13.90;12.50;;;;;;;10.34;81.34;101547.09;5084553;28;20204;-76
2021/05/29 09:38:41;;;;;;;14.20;13.00;;;;;;;10.57;79.86;101547.09;5083566;28;20269;-76
2021/05/29 09:41:19;;;;;;;12.90;11.67;;;;;;;10.71;78.55;101547.94;5084203;28;20251;-76
2021/05/29 09:43:52;;;;;;;13.13;12.03;;;;;;;10.83;78.28;101546.19;5084046;28;20663;-77
2021/05/29 09:46:19;;;;;;;12.63;11.60;;;;;;;10.83;78.08;101540.94;5083044;28;20682;-76
2021/05/29 09:48:53;;;;;;;13.13;12.00;;;;;;;10.50;78.66;101545.34;5083646;28;20200;-77
2021/05/29 09:51:20;;;;;;;13.13;12.03;;;;;;;10.65;79.32;101547.09;5083895;28;20231;-76
2021/05/29 09:53:48;;;;;;;14.13;12.73;;;;;;;10.58;79.75;101548.81;5083264;28;20257;-75
2021/05/29 09:56:26;;;;;;;14.43;13.13;;;;;;;10.31;80.28;101561.03;5082793;28;20216;-75
2021/05/29 09:58:57;;;;;;;14.37;12.90;;;;;;;10.23;81.11;101559.25;5083644;28;20208;-76
2021/05/29 10:01:42;;;;;;;15.33;13.53;;;;;;;10.26;80.91;101557.50;5083783;28;20316;-75
2021/05/29 10:04:11;;;;;;;18.60;14.43;;;;;;;10.36;80.83;101563.63;5083029;28;20439;-76
2021/05/29 10:06:37;;;;;;;23.57;14.90;;;;;;;10.35;81.25;101567.13;5083633;28;20200;-76
2021/05/29 10:09:05;;;;;;;20.13;14.77;;;;;;;10.37;80.73;101564.50;5083487;28;20201;-75
2021/05/29 10:11:32;;;;;;;16.40;14.70;;;;;;;10.30;80.41;101566.22;5083629;28;20216;-76
2021/05/29 10:13:58;;;;;;;14.43;13.03;;;;;;;10.24;80.67;101566.19;5083185;28;20740;-76
2021/05/29 10:16:25;;;;;;;15.83;14.43;;;;;;;10.19;80.75;101565.31;5083225;28;20580;-76
2021/05/29 10:19:01;;;;;;;14.87;13.30;;;;;;;10.30;80.58;101571.44;5082483;28;20213;-76
2021/05/29 10:21:31;;;;;;;14.53;13.10;;;;;;;10.27;80.53;101571.44;5083641;28;20219;-76
2021/05/29 10:24:00;;;;;;;20.27;14.30;;;;;;;10.29;80.76;101575.78;5083279;28;20216;-76
2021/05/29 10:26:28;;;;;;;15.93;14.03;;;;;;;10.29;80.18;101581.00;5083760;28;20211;-76
2021/05/29 10:28:54;;;;;;;16.13;14.17;;;;;;;10.38;80.20;101577.53;5083228;28;20208;-75
2021/05/29 10:31:21;;;;;;;14.33;12.97;;;;;;;10.32;79.86;101581.00;5083592;28;20228;-76
2021/05/29 10:33:47;;;;;;;15.43;13.83;;;;;;;10.28;79.61;101581.84;5082172;28;20235;-75
2021/05/29 10:36:36;;;;;;;14.13;12.77;;;;;;;10.35;79.30;101582.78;5083654;28;20711;-76
2021/05/29 10:39:04;;;;;;;13.47;12.30;;;;;;;10.55;78.89;101589.75;5082517;28;20273;-76
2021/05/29 10:41:53;;;;;;;13.67;12.37;;;;;;;10.70;76.87;101580.16;5081846;28;20663;-77
2021/05/29 10:44:35;;;;;;;13.90;12.70;;;;;;;10.65;77.05;101589.72;5082371;28;20212;-76
2021/05/29 10:47:10;;;;;;;13.77;12.43;;;;;;;10.81;77.10;101585.34;5082100;28;20215;-75
2021/05/29 10:49:59;;;;;;;12.20;11.20;;;;;;;10.80;76.13;101575.78;5081730;28;20224;-76
2021/05/29 10:52:51;;;;;;;13.03;11.83;;;;;;;10.76;75.59;101581.00;5082377;28;20230;-76
2021/05/29 10:55:25;;;;;;;13.30;11.90;;;;;;;10.84;75.78;101576.63;5082761;28;20580;-76
2021/05/29 10:57:55;;;;;;;13.23;11.93;;;;;;;11.02;75.86;101583.56;5082798;28;20204;-76
2021/05/29 11:00:58;;;;;;;15.13;12.27;;;;;;;11.05;75.92;101576.59;5082441;28;20216;-76
2021/05/29 11:03:29;;;;;;;12.30;11.13;;;;;;;11.10;75.46;101579.22;5081871;28;20204;-74
2021/05/29 11:05:58;;;;;;;12.27;11.27;;;;;;;11.09;75.11;101580.06;5082793;28;20217;-75
2021/05/29 11:08:50;;;;;;;12.87;11.80;;;;;;;11.00;75.14;101587.91;5082772;28;20211;-76
2021/05/29 11:11:52;;;;;;;13.57;12.27;;;;;;;10.80;75.77;101581.03;5081423;28;20228;-76
2021/05/29 11:14:19;;;;;;;13.83;12.53;;;;;;;10.88;76.73;101583.59;5081382;28;20320;-75
2021/05/29 11:17:08;;;;;;;12.23;11.13;;;;;;;11.09;75.58;101587.91;5081606;28;20212;-76
2021/05/29 11:19:36;;;;;;;14.00;12.80;;;;;;;11.19;75.52;101589.63;5081672;28;20253;-75
2021/05/29 11:22:04;;;;;;;14.60;13.30;;;;;;;11.03;75.58;101591.41;5081404;28;20682;-76
2021/05/29 11:24:33;;;;;;;14.57;13.23;;;;;;;11.07;75.81;101584.44;5081741;28;20247;-76
2021/05/29 11:26:59;;;;;;;13.67;12.47;;;;;;;11.08;75.37;101584.44;5082521;28;20208;-76